sensor_id;sensor_type;location;lat;lon;timestamp;pressure;altitude;pressure_sealevel;temperature;humidity
69737;BME280;64476;55.004;73.342;2023-05-21T00:00:55;101286.44;;;10.06;40.36
69737;BME280;64476;55.004;73.342;2023-05-21T00:03:57;101266.16;;;9.88;40.76
69737;BME280;64476;55.004;73.342;2023-05-21T00:07:00;101259.78;;;9.81;40.45
69737;BME280;64476;55.004;73.342;2023-05-21T00:10:09;101295.84;;;9.98;41.32
69737;BME280;64476;55.004;73.342;2023-05-21T00:13:11;101252.88;;;9.70;41.12
69737;BME280;64476;55.004;73.342;2023-05-21T00:16:13;101293.91;;;9.91;40.91
69737;BME280;64476;55.004;73.342;2023-05-21T00:19:14;101284.91;;;9.84;41.17
69737;BME280;64476;55.004;73.342;2023-05-21T00:22:16;101290.88;;;9.86;41.41
69737;BME280;64476;55.004;73.342;2023-05-21T00:25:29;101296.13;;;9.86;43.00
69737;BME280;64476;55.004;73.342;2023-05-21T00:28:31;101270.44;;;9.70;43.41
69737;BME280;64476;55.004;73.342;2023-05-21T00:31:32;101293.75;;;9.83;42.97
69737;BME280;64476;55.004;73.342;2023-05-21T00:34:35;101291.84;;;9.85;43.37
69737;BME280;64476;55.004;73.342;2023-05-21T00:37:37;101289.34;;;9.83;44.30
69737;BME280;64476;55.004;73.342;2023-05-21T00:40:39;101285.59;;;9.76;43.90
69737;BME280;64476;55.004;73.342;2023-05-21T00:43:46;101297.50;;;9.90;43.84
69737;BME280;64476;55.004;73.342;2023-05-21T00:46:53;101278.84;;;9.83;42.68
69737;BME280;64476;55.004;73.342;2023-05-21T00:49:54;101294.59;;;10.02;41.87
69737;BME280;64476;55.004;73.342;2023-05-21T00:52:56;101290.59;;;10.08;41.60
69737;BME280;64476;55.004;73.342;2023-05-21T00:56:00;101299.31;;;10.18;41.85
69737;BME280;64476;55.004;73.342;2023-05-21T00:59:03;101285.75;;;10.23;40.18
69737;BME280;64476;55.004;73.342;2023-05-21T01:02:06;101276.22;;;10.22;39.55
69737;BME280;64476;55.004;73.342;2023-05-21T01:05:09;101301.63;;;10.50;38.79
69737;BME280;64476;55.004;73.342;2023-05-21T01:08:11;101306.59;;;10.63;38.62
69737;BME280;64476;55.004;73.342;2023-05-21T01:11:13;101270.34;;;10.57;38.45
69737;BME280;64476;55.004;73.342;2023-05-21T01:14:21;101288.94;;;10.83;38.28
69737;BME280;64476;55.004;73.342;2023-05-21T01:17:27;101305.88;;;11.08;38.27
69737;BME280;64476;55.004;73.342;2023-05-21T01:20:30;101297.53;;;11.13;37.99
69737;BME280;64476;55.004;73.342;2023-05-21T01:23:33;101280.06;;;11.21;37.81
69737;BME280;64476;55.004;73.342;2023-05-21T01:26:34;101284.00;;;11.35;37.57
69737;BME280;64476;55.004;73.342;2023-05-21T01:29:42;101265.16;;;11.40;36.93
69737;BME280;64476;55.004;73.342;2023-05-21T01:39:46;101287.94;;;11.94;36.87
69737;BME280;64476;55.004;73.342;2023-05-21T01:42:50;101304.84;;;12.10;36.89
69737;BME280;64476;55.004;73.342;2023-05-21T01:45:54;101262.78;;;12.00;36.61
69737;BME280;64476;55.004;73.342;2023-05-21T01:48:56;101300.69;;;12.25;36.64
69737;BME280;64476;55.004;73.342;2023-05-21T01:52:02;101258.03;;;12.04;36.14
69737;BME280;64476;55.004;73.342;2023-05-21T01:55:08;101226.66;;;11.92;35.71
69737;BME280;64476;55.004;73.342;2023-05-21T01:58:10;101294.09;;;12.47;35.68
69737;BME280;64476;55.004;73.342;2023-05-21T02:01:12;101289.69;;;12.56;35.23
69737;BME280;64476;55.004;73.342;2023-05-21T02:04:14;101280.47;;;12.60;35.26
69737;BME280;64476;55.004;73.342;2023-05-21T02:07:16;101302.06;;;12.81;35.13
69737;BME280;64476;55.004;73.342;2023-05-21T02:10:28;101292.03;;;12.85;34.76
69737;BME280;64476;55.004;73.342;2023-05-21T02:13:30;101314.22;;;13.08;34.44
69737;BME280;64476;55.004;73.342;2023-05-21T02:16:32;101317.44;;;13.20;34.34
69737;BME280;64476;55.004;73.342;2023-05-21T02:19:44;101280.59;;;13.02;33.48
69737;BME280;64476;55.004;73.342;2023-05-21T02:22:47;101292.38;;;13.24;33.82
69737;BME280;64476;55.004;73.342;2023-05-21T02:25:49;101323.47;;;13.55;33.97
69737;BME280;64476;55.004;73.342;2023-05-21T02:28:50;101326.69;;;13.75;33.81
69737;BME280;64476;55.004;73.342;2023-05-21T02:31:53;101302.75;;;13.76;33.36
69737;BME280;64476;55.004;73.342;2023-05-21T02:34:55;101328.41;;;14.08;33.52
69737;BME280;64476;55.004;73.342;2023-05-21T02:37:57;101330.53;;;14.29;33.02
69737;BME280;64476;55.004;73.342;2023-05-21T02:41:02;101311.53;;;14.42;32.49
69737;BME280;64476;55.004;73.342;2023-05-21T02:44:06;101323.06;;;14.66;31.77
69737;BME280;64476;55.004;73.342;2023-05-21T02:47:08;101299.25;;;14.66;31.63
69737;BME280;64476;55.004;73.342;2023-05-21T02:50:12;101320.53;;;14.97;31.33
69737;BME280;64476;55.004;73.342;2023-05-21T02:53:33;101314.03;;;15.16;30.66
69737;BME280;64476;55.004;73.342;2023-05-21T02:56:36;101252.91;;;14.94;30.48
69737;BME280;64476;55.004;73.342;2023-05-21T02:59:38;101273.94;;;15.27;30.14
69737;BME280;64476;55.004;73.342;2023-05-21T03:02:40;101312.75;;;15.74;29.90
69737;BME280;64476;55.004;73.342;2023-05-21T03:05:43;101308.63;;;15.94;29.71
69737;BME280;64476;55.004;73.342;2023-05-21T03:08:49;101294.47;;;16.02;29.17
69737;BME280;64476;55.004;73.342;2023-05-21T03:11:51;101319.91;;;16.34;29.17
69737;BME280;64476;55.004;73.342;2023-05-21T03:14:54;101290.00;;;16.40;28.92
69737;BME280;64476;55.004;73.342;2023-05-21T03:17:56;101285.38;;;16.57;28.33
69737;BME280;64476;55.004;73.342;2023-05-21T03:20:59;101307.91;;;16.76;28.29
69737;BME280;64476;55.004;73.342;2023-05-21T03:24:03;101286.66;;;16.76;27.65
69737;BME280;64476;55.004;73.342;2023-05-21T03:27:05;101286.66;;;16.91;27.69
69737;BME280;64476;55.004;73.342;2023-05-21T03:30:07;101286.09;;;17.10;27.25
69737;BME280;64476;55.004;73.342;2023-05-21T03:33:20;101307.13;;;17.41;27.44
69737;BME280;64476;55.004;73.342;2023-05-21T03:36:23;101299.25;;;17.48;26.48
69737;BME280;64476;55.004;73.342;2023-05-21T03:39:27;101316.91;;;17.77;26.20
69737;BME280;64476;55.004;73.342;2023-05-21T03:43:03;101288.13;;;17.81;25.92
69737;BME280;64476;55.004;73.342;2023-05-21T03:46:37;101316.41;;;18.10;25.38
69737;BME280;64476;55.004;73.342;2023-05-21T03:49:46;101310.03;;;18.26;25.42
69737;BME280;64476;55.004;73.342;2023-05-21T03:52:48;101288.97;;;18.31;25.04
69737;BME280;64476;55.004;73.342;2023-05-21T03:55:49;101313.13;;;18.64;24.77
69737;BME280;64476;55.004;73.342;2023-05-21T03:58:57;101305.47;;;18.76;24.35
69737;BME280;64476;55.004;73.342;2023-05-21T04:01:59;101286.22;;;18.80;24.27
69737;BME280;64476;55.004;73.342;2023-05-21T04:05:01;101296.38;;;19.05;24.10
69737;BME280;64476;55.004;73.342;2023-05-21T04:08:35;101265.84;;;18.94;23.52
69737;BME280;64476;55.004;73.342;2023-05-21T04:11:39;101287.66;;;19.18;23.48
69737;BME280;64476;55.004;73.342;2023-05-21T04:14:43;101270.84;;;19.17;23.04
69737;BME280;64476;55.004;73.342;2023-05-21T04:17:45;101295.31;;;19.47;23.23
69737;BME280;64476;55.004;73.342;2023-05-21T04:20:47;101258.81;;;19.41;22.65
69737;BME280;64476;55.004;73.342;2023-05-21T04:23:51;101297.25;;;19.73;21.72
69737;BME280;64476;55.004;73.342;2023-05-21T04:27:14;101253.31;;;19.62;21.85
69737;BME280;64476;55.004;73.342;2023-05-21T04:30:17;101268.34;;;19.83;21.22
69737;BME280;64476;55.004;73.342;2023-05-21T04:33:21;101263.84;;;19.91;21.25
69737;BME280;64476;55.004;73.342;2023-05-21T04:36:23;101243.13;;;19.79;20.93
69737;BME280;64476;55.004;73.342;2023-05-21T04:39:26;101265.66;;;20.03;20.99
69737;BME280;64476;55.004;73.342;2023-05-21T04:42:29;101271.41;;;20.27;21.28
69737;BME280;64476;55.004;73.342;2023-05-21T04:45:33;101283.13;;;20.39;20.98
69737;BME280;64476;55.004;73.342;2023-05-21T04:48:35;101285.38;;;20.42;20.61
69737;BME280;64476;55.004;73.342;2023-05-21T04:54:47;101272.25;;;19.88;20.88
69737;BME280;64476;55.004;73.342;2023-05-21T04:57:48;101269.16;;;19.91;21.41
69737;BME280;64476;55.004;73.342;2023-05-21T05:00:51;101270.19;;;20.09;21.00
69737;BME280;64476;55.004;73.342;2023-05-21T05:03:55;101276.53;;;20.28;20.35
69737;BME280;64476;55.004;73.342;2023-05-21T05:06:57;101254.78;;;20.31;20.42
69737;BME280;64476;55.004;73.342;2023-05-21T05:09:59;101257.25;;;20.46;20.34
69737;BME280;64476;55.004;73.342;2023-05-21T05:13:02;101248.38;;;20.59;20.09
69737;BME280;64476;55.004;73.342;2023-05-21T05:16:37;101262.22;;;20.94;20.22
69737;BME280;64476;55.004;73.342;2023-05-21T05:20:11;101253.31;;;21.14;20.16
69737;BME280;64476;55.004;73.342;2023-05-21T05:23:13;101243.34;;;21.34;19.74
69737;BME280;64476;55.004;73.342;2023-05-21T05:26:46;101244.91;;;21.48;19.70
69737;BME280;64476;55.004;73.342;2023-05-21T05:29:49;101214.13;;;21.39;19.84
69737;BME280;64476;55.004;73.342;2023-05-21T05:32:50;101250.63;;;21.84;19.48
69737;BME280;64476;55.004;73.342;2023-05-21T05:35:52;101233.91;;;21.88;19.20
69737;BME280;64476;55.004;73.342;2023-05-21T05:38:56;101215.91;;;22.02;19.33
69737;BME280;64476;55.004;73.342;2023-05-21T05:41:58;101230.72;;;22.23;19.15
69737;BME280;64476;55.004;73.342;2023-05-21T05:45:00;101205.22;;;22.20;19.81
69737;BME280;64476;55.004;73.342;2023-05-21T05:48:05;101240.94;;;22.51;19.22
69737;BME280;64476;55.004;73.342;2023-05-21T05:51:07;101218.41;;;22.40;18.85
69737;BME280;64476;55.004;73.342;2023-05-21T05:54:10;101228.31;;;22.58;18.76
69737;BME280;64476;55.004;73.342;2023-05-21T05:57:14;101203.63;;;22.56;18.48
69737;BME280;64476;55.004;73.342;2023-05-21T06:00:16;101192.41;;;22.66;18.73
69737;BME280;64476;55.004;73.342;2023-05-21T06:03:22;101225.31;;;22.85;18.66
69737;BME280;64476;55.004;73.342;2023-05-21T06:06:27;101221.09;;;22.77;18.34
69737;BME280;64476;55.004;73.342;2023-05-21T06:09:29;101209.78;;;22.57;18.81
69737;BME280;64476;55.004;73.342;2023-05-21T06:13:03;101224.72;;;22.27;18.92
69737;BME280;64476;55.004;73.342;2023-05-21T06:16:05;101210.13;;;22.05;19.33
69737;BME280;64476;55.004;73.342;2023-05-21T06:19:07;101214.72;;;22.16;19.43
69737;BME280;64476;55.004;73.342;2023-05-21T06:22:10;101221.66;;;22.42;19.47
69737;BME280;64476;55.004;73.342;2023-05-21T06:25:20;101161.56;;;22.01;18.94
69737;BME280;64476;55.004;73.342;2023-05-21T06:28:22;101213.16;;;22.09;19.59
69737;BME280;64476;55.004;73.342;2023-05-21T06:31:25;101202.22;;;22.10;19.57
69737;BME280;64476;55.004;73.342;2023-05-21T06:34:27;101193.94;;;22.37;19.26
69737;BME280;64476;55.004;73.342;2023-05-21T06:37:29;101204.69;;;22.55;18.62
69737;BME280;64476;55.004;73.342;2023-05-21T06:40:30;101200.06;;;22.62;19.01
69737;BME280;64476;55.004;73.342;2023-05-21T06:43:34;101182.88;;;22.52;19.14
69737;BME280;64476;55.004;73.342;2023-05-21T06:46:54;101208.97;;;22.38;18.46
69737;BME280;64476;55.004;73.342;2023-05-21T06:49:58;101184.50;;;21.91;18.62
69737;BME280;64476;55.004;73.342;2023-05-21T06:52:59;101190.50;;;21.61;19.41
69737;BME280;64476;55.004;73.342;2023-05-21T06:56:04;101175.41;;;21.48;18.99
69737;BME280;64476;55.004;73.342;2023-05-21T06:59:32;101194.94;;;21.49;19.38
69737;BME280;64476;55.004;73.342;2023-05-21T07:02:35;101199.16;;;21.63;19.24
69737;BME280;64476;55.004;73.342;2023-05-21T07:05:37;101196.38;;;21.70;18.99
69737;BME280;64476;55.004;73.342;2023-05-21T07:08:42;101192.78;;;21.89;18.78
69737;BME280;64476;55.004;73.342;2023-05-21T07:11:44;101169.00;;;21.99;18.10
69737;BME280;64476;55.004;73.342;2023-05-21T07:14:47;101190.16;;;22.26;18.68
69737;BME280;64476;55.004;73.342;2023-05-21T07:17:49;101162.72;;;22.49;18.44
69737;BME280;64476;55.004;73.342;2023-05-21T07:20:51;101156.69;;;22.84;17.82
69737;BME280;64476;55.004;73.342;2023-05-21T07:24:01;101164.09;;;23.00;17.55
69737;BME280;64476;55.004;73.342;2023-05-21T07:27:03;101184.22;;;23.21;17.71
69737;BME280;64476;55.004;73.342;2023-05-21T07:30:08;101182.41;;;23.33;17.14
69737;BME280;64476;55.004;73.342;2023-05-21T07:33:11;101174.03;;;23.41;16.79
69737;BME280;64476;55.004;73.342;2023-05-21T07:36:14;101169.13;;;23.38;16.71
69737;BME280;64476;55.004;73.342;2023-05-21T07:39:16;101145.09;;;23.32;17.20
69737;BME280;64476;55.004;73.342;2023-05-21T07:42:18;101175.44;;;23.56;17.17
69737;BME280;64476;55.004;73.342;2023-05-21T07:45:28;101162.75;;;23.63;16.87
69737;BME280;64476;55.004;73.342;2023-05-21T07:49:03;101165.09;;;23.83;16.84
69737;BME280;64476;55.004;73.342;2023-05-21T07:52:05;101149.25;;;23.81;16.13
69737;BME280;64476;55.004;73.342;2023-05-21T07:55:40;101154.09;;;23.73;16.25
69737;BME280;64476;55.004;73.342;2023-05-21T07:58:48;101141.28;;;23.63;16.61
69737;BME280;64476;55.004;73.342;2023-05-21T08:01:53;101151.75;;;23.64;16.67
69737;BME280;64476;55.004;73.342;2023-05-21T08:04:56;101171.34;;;23.41;16.86
69737;BME280;64476;55.004;73.342;2023-05-21T08:07:59;101153.34;;;23.18;17.19
69737;BME280;64476;55.004;73.342;2023-05-21T08:11:01;101158.72;;;23.18;17.23
69737;BME280;64476;55.004;73.342;2023-05-21T08:14:04;101153.47;;;23.35;16.65
69737;BME280;64476;55.004;73.342;2023-05-21T08:20:14;101125.03;;;23.58;16.38
69737;BME280;64476;55.004;73.342;2023-05-21T08:23:18;101142.25;;;23.80;17.15
69737;BME280;64476;55.004;73.342;2023-05-21T08:26:25;101153.19;;;24.02;16.27
69737;BME280;64476;55.004;73.342;2023-05-21T08:29:27;101134.03;;;24.10;16.71
69737;BME280;64476;55.004;73.342;2023-05-21T08:32:29;101147.69;;;24.09;16.36
69737;BME280;64476;55.004;73.342;2023-05-21T08:35:31;101118.66;;;23.94;16.75
69737;BME280;64476;55.004;73.342;2023-05-21T08:38:53;101142.56;;;24.07;16.36
69737;BME280;64476;55.004;73.342;2023-05-21T08:45:34;101143.25;;;23.91;16.19
69737;BME280;64476;55.004;73.342;2023-05-21T08:48:38;101117.84;;;23.58;16.58
69737;BME280;64476;55.004;73.342;2023-05-21T08:51:41;101119.00;;;23.51;16.48
69737;BME280;64476;55.004;73.342;2023-05-21T08:54:45;101109.66;;;23.65;16.15
69737;BME280;64476;55.004;73.342;2023-05-21T08:57:52;101130.69;;;23.91;16.53
69737;BME280;64476;55.004;73.342;2023-05-21T09:00:55;101129.03;;;24.02;16.15
69737;BME280;64476;55.004;73.342;2023-05-21T09:04:04;101125.50;;;24.02;16.07
69737;BME280;64476;55.004;73.342;2023-05-21T09:07:07;101103.69;;;23.98;16.20
69737;BME280;64476;55.004;73.342;2023-05-21T09:14:20;101103.88;;;24.20;16.10
69737;BME280;64476;55.004;73.342;2023-05-21T09:17:45;101132.69;;;24.48;16.55
69737;BME280;64476;55.004;73.342;2023-05-21T09:21:23;101067.34;;;24.19;15.27
69737;BME280;64476;55.004;73.342;2023-05-21T09:24:29;101118.81;;;24.39;15.49
69737;BME280;64476;55.004;73.342;2023-05-21T09:27:32;101101.09;;;24.15;15.72
69737;BME280;64476;55.004;73.342;2023-05-21T09:30:35;101127.94;;;24.15;15.89
69737;BME280;64476;55.004;73.342;2023-05-21T09:33:47;101106.72;;;24.13;15.54
69737;BME280;64476;55.004;73.342;2023-05-21T09:36:50;101079.88;;;24.02;15.44
69737;BME280;64476;55.004;73.342;2023-05-21T09:39:52;101121.75;;;24.26;15.46
69737;BME280;64476;55.004;73.342;2023-05-21T09:42:54;101115.75;;;24.36;15.55
69737;BME280;64476;55.004;73.342;2023-05-21T09:45:56;101120.53;;;24.46;14.93
69737;BME280;64476;55.004;73.342;2023-05-21T09:49:01;101093.94;;;24.32;15.17
69737;BME280;64476;55.004;73.342;2023-05-21T09:52:03;101108.38;;;24.55;14.74
69737;BME280;64476;55.004;73.342;2023-05-21T09:55:05;101084.66;;;24.52;14.77
69737;BME280;64476;55.004;73.342;2023-05-21T09:58:11;101123.38;;;24.68;14.60
69737;BME280;64476;55.004;73.342;2023-05-21T10:01:13;101116.91;;;24.52;14.75
69737;BME280;64476;55.004;73.342;2023-05-21T10:04:14;101095.00;;;24.43;14.75
69737;BME280;64476;55.004;73.342;2023-05-21T10:07:19;101105.44;;;24.56;14.60
69737;BME280;64476;55.004;73.342;2023-05-21T10:10:29;101097.97;;;24.58;14.60
69737;BME280;64476;55.004;73.342;2023-05-21T10:13:37;101120.72;;;24.56;14.80
69737;BME280;64476;55.004;73.342;2023-05-21T10:16:49;101087.00;;;24.48;15.08
69737;BME280;64476;55.004;73.342;2023-05-21T10:19:54;101109.25;;;24.60;15.08
69737;BME280;64476;55.004;73.342;2023-05-21T10:22:57;101091.56;;;24.48;14.74
69737;BME280;64476;55.004;73.342;2023-05-21T10:25:59;101119.53;;;24.63;14.48
69737;BME280;64476;55.004;73.342;2023-05-21T10:29:01;101119.44;;;24.58;14.55
69737;BME280;64476;55.004;73.342;2023-05-21T10:32:07;101119.91;;;24.55;14.58
69737;BME280;64476;55.004;73.342;2023-05-21T10:35:45;101117.84;;;24.34;14.74
69737;BME280;64476;55.004;73.342;2023-05-21T10:38:47;101117.38;;;24.37;15.16
69737;BME280;64476;55.004;73.342;2023-05-21T10:42:00;101118.47;;;24.64;14.61
69737;BME280;64476;55.004;73.342;2023-05-21T11:02:08;101124.53;;;25.34;13.68
69737;BME280;64476;55.004;73.342;2023-05-21T11:05:11;101105.28;;;25.98;12.96
69737;BME280;64476;55.004;73.342;2023-05-21T11:14:56;101107.00;;;27.82;11.88
69737;BME280;64476;55.004;73.342;2023-05-21T11:17:58;101124.06;;;27.92;12.27
69737;BME280;64476;55.004;73.342;2023-05-21T11:21:13;101114.03;;;27.40;12.10
69737;BME280;64476;55.004;73.342;2023-05-21T11:24:18;101110.31;;;27.46;12.10
69737;BME280;64476;55.004;73.342;2023-05-21T11:30:30;101141.44;;;26.95;12.77
69737;BME280;64476;55.004;73.342;2023-05-21T11:33:32;101124.41;;;26.40;13.06
69737;BME280;64476;55.004;73.342;2023-05-21T11:36:36;101115.97;;;25.93;13.26
69737;BME280;64476;55.004;73.342;2023-05-21T11:39:38;101147.25;;;25.77;14.05
69737;BME280;64476;55.004;73.342;2023-05-21T11:42:40;101139.25;;;25.82;13.61
69737;BME280;64476;55.004;73.342;2023-05-21T11:45:47;101155.50;;;25.87;13.45
69737;BME280;64476;55.004;73.342;2023-05-21T11:49:23;101137.31;;;25.77;13.38
69737;BME280;64476;55.004;73.342;2023-05-21T11:52:27;101117.25;;;25.34;13.33
69737;BME280;64476;55.004;73.342;2023-05-21T11:59:03;101132.19;;;25.42;13.43
69737;BME280;64476;55.004;73.342;2023-05-21T12:02:06;101142.88;;;24.92;13.49
69737;BME280;64476;55.004;73.342;2023-05-21T12:05:08;101116.75;;;24.58;13.88
69737;BME280;64476;55.004;73.342;2023-05-21T12:08:10;101124.53;;;24.43;14.07
69737;BME280;64476;55.004;73.342;2023-05-21T12:11:12;101132.13;;;24.23;14.88
69737;BME280;64476;55.004;73.342;2023-05-21T12:14:13;101100.22;;;23.86;14.36
69737;BME280;64476;55.004;73.342;2023-05-21T12:17:17;101117.94;;;23.63;14.57
69737;BME280;64476;55.004;73.342;2023-05-21T12:20:28;101131.25;;;23.58;14.53
69737;BME280;64476;55.004;73.342;2023-05-21T12:23:30;101132.06;;;23.47;14.66
69737;BME280;64476;55.004;73.342;2023-05-21T12:26:32;101110.91;;;23.15;14.86
69737;BME280;64476;55.004;73.342;2023-05-21T12:29:41;101112.72;;;23.03;15.02
69737;BME280;64476;55.004;73.342;2023-05-21T12:32:47;101118.00;;;22.80;15.06
69737;BME280;64476;55.004;73.342;2023-05-21T12:35:49;101124.75;;;22.70;15.63
69737;BME280;64476;55.004;73.342;2023-05-21T12:38:53;101128.78;;;22.61;15.70
69737;BME280;64476;55.004;73.342;2023-05-21T12:41:54;101132.81;;;22.52;15.85
69737;BME280;64476;55.004;73.342;2023-05-21T12:44:56;101125.22;;;22.31;15.76
69737;BME280;64476;55.004;73.342;2023-05-21T12:48:02;101132.81;;;22.34;15.53
69737;BME280;64476;55.004;73.342;2023-05-21T12:51:03;101148.56;;;22.23;15.61
69737;BME280;64476;55.004;73.342;2023-05-21T12:54:11;101154.28;;;22.27;16.08
69737;BME280;64476;55.004;73.342;2023-05-21T12:57:15;101123.44;;;22.06;15.94
69737;BME280;64476;55.004;73.342;2023-05-21T13:00:22;101118.16;;;21.99;15.59
69737;BME280;64476;55.004;73.342;2023-05-21T13:03:56;101149.56;;;22.11;16.30
69737;BME280;64476;55.004;73.342;2023-05-21T13:06:58;101160.84;;;22.13;16.25
69737;BME280;64476;55.004;73.342;2023-05-21T13:10:01;101155.16;;;22.02;17.21
69737;BME280;64476;55.004;73.342;2023-05-21T13:13:37;101143.94;;;21.94;16.76
69737;BME280;64476;55.004;73.342;2023-05-21T13:16:39;101111.81;;;21.75;16.60
69737;BME280;64476;55.004;73.342;2023-05-21T13:19:41;101142.59;;;21.85;16.65
69737;BME280;64476;55.004;73.342;2023-05-21T13:22:44;101153.75;;;21.82;17.14
69737;BME280;64476;55.004;73.342;2023-05-21T13:25:48;101134.06;;;21.69;16.59
69737;BME280;64476;55.004;73.342;2023-05-21T13:28:52;101154.78;;;21.81;16.65
69737;BME280;64476;55.004;73.342;2023-05-21T13:31:54;101156.66;;;21.73;16.64
69737;BME280;64476;55.004;73.342;2023-05-21T13:34:56;101158.56;;;21.66;16.72
69737;BME280;64476;55.004;73.342;2023-05-21T13:37:58;101144.13;;;21.49;16.88
69737;BME280;64476;55.004;73.342;2023-05-21T13:40:59;101153.16;;;21.48;16.66
69737;BME280;64476;55.004;73.342;2023-05-21T13:44:01;101151.44;;;21.35;17.20
69737;BME280;64476;55.004;73.342;2023-05-21T13:47:04;101140.59;;;21.30;17.19
69737;BME280;64476;55.004;73.342;2023-05-21T13:50:06;101132.03;;;21.15;17.51
69737;BME280;64476;55.004;73.342;2023-05-21T13:53:08;101152.38;;;21.22;17.36
69737;BME280;64476;55.004;73.342;2023-05-21T13:56:10;101130.69;;;20.99;17.51
69737;BME280;64476;55.004;73.342;2023-05-21T13:59:12;101139.56;;;20.93;17.75
69737;BME280;64476;55.004;73.342;2023-05-21T14:02:14;101146.97;;;20.91;17.56
69737;BME280;64476;55.004;73.342;2023-05-21T14:05:15;101137.81;;;20.73;17.55
69737;BME280;64476;55.004;73.342;2023-05-21T14:08:17;101137.66;;;20.68;17.81
69737;BME280;64476;55.004;73.342;2023-05-21T14:11:21;101172.94;;;20.77;17.71
69737;BME280;64476;55.004;73.342;2023-05-21T14:17:28;101159.66;;;20.64;18.24
69737;BME280;64476;55.004;73.342;2023-05-21T14:20:30;101169.31;;;20.58;18.15
69737;BME280;64476;55.004;73.342;2023-05-21T14:23:31;101159.53;;;20.45;18.52
69737;BME280;64476;55.004;73.342;2023-05-21T14:26:35;101157.47;;;20.41;18.67
69737;BME280;64476;55.004;73.342;2023-05-21T14:29:37;101162.81;;;20.34;18.47
69737;BME280;64476;55.004;73.342;2023-05-21T14:32:39;101158.72;;;20.18;19.10
69737;BME280;64476;55.004;73.342;2023-05-21T14:35:40;101163.47;;;20.16;19.05
69737;BME280;64476;55.004;73.342;2023-05-21T14:38:46;101162.47;;;20.04;19.36
69737;BME280;64476;55.004;73.342;2023-05-21T14:41:48;101172.13;;;20.05;19.51
69737;BME280;64476;55.004;73.342;2023-05-21T14:44:49;101169.06;;;19.95;19.69
69737;BME280;64476;55.004;73.342;2023-05-21T14:47:51;101176.03;;;19.89;19.90
69737;BME280;64476;55.004;73.342;2023-05-21T14:50:53;101163.31;;;19.78;20.13
69737;BME280;64476;55.004;73.342;2023-05-21T14:53:55;101174.59;;;19.73;20.10
69737;BME280;64476;55.004;73.342;2023-05-21T14:56:59;101159.19;;;19.55;20.18
69737;BME280;64476;55.004;73.342;2023-05-21T15:00:01;101186.47;;;19.64;20.35
69737;BME280;64476;55.004;73.342;2023-05-21T15:03:06;101192.81;;;19.63;20.43
69737;BME280;64476;55.004;73.342;2023-05-21T15:06:08;101194.06;;;19.60;20.43
69737;BME280;64476;55.004;73.342;2023-05-21T15:09:10;101186.69;;;19.49;20.50
69737;BME280;64476;55.004;73.342;2023-05-21T15:12:12;101192.41;;;19.46;20.77
69737;BME280;64476;55.004;73.342;2023-05-21T15:15:13;101191.59;;;19.39;20.81
69737;BME280;64476;55.004;73.342;2023-05-21T15:18:17;101172.72;;;19.27;21.28
69737;BME280;64476;55.004;73.342;2023-05-21T15:21:19;101176.38;;;19.20;21.50
69737;BME280;64476;55.004;73.342;2023-05-21T15:24:21;101167.75;;;19.11;21.78
69737;BME280;64476;55.004;73.342;2023-05-21T15:27:23;101194.19;;;19.19;22.23
69737;BME280;64476;55.004;73.342;2023-05-21T15:30:28;101192.94;;;19.08;22.14
69737;BME280;64476;55.004;73.342;2023-05-21T15:33:30;101200.31;;;19.06;22.03
69737;BME280;64476;55.004;73.342;2023-05-21T15:36:36;101155.53;;;18.69;22.11
69737;BME280;64476;55.004;73.342;2023-05-21T15:39:38;101155.94;;;18.65;22.21
69737;BME280;64476;55.004;73.342;2023-05-21T15:42:39;101199.81;;;18.89;21.88
69737;BME280;64476;55.004;73.342;2023-05-21T15:45:41;101201.03;;;18.80;22.00
69737;BME280;64476;55.004;73.342;2023-05-21T15:48:43;101208.00;;;18.81;22.37
69737;BME280;64476;55.004;73.342;2023-05-21T15:51:46;101186.41;;;18.63;22.50
69737;BME280;64476;55.004;73.342;2023-05-21T15:54:48;101205.44;;;18.60;22.67
69737;BME280;64476;55.004;73.342;2023-05-21T15:57:49;101218.38;;;18.70;22.65
69737;BME280;64476;55.004;73.342;2023-05-21T16:00:51;101224.50;;;18.63;22.59
69737;BME280;64476;55.004;73.342;2023-05-21T16:03:53;101205.13;;;18.41;22.98
69737;BME280;64476;55.004;73.342;2023-05-21T16:06:55;101209.47;;;18.49;23.18
69737;BME280;64476;55.004;73.342;2023-05-21T16:09:56;101222.97;;;18.48;23.45
69737;BME280;64476;55.004;73.342;2023-05-21T16:13:30;101244.69;;;18.51;23.93
69737;BME280;64476;55.004;73.342;2023-05-21T16:16:32;101213.06;;;18.28;24.15
69737;BME280;64476;55.004;73.342;2023-05-21T16:19:34;101226.81;;;18.38;24.41
69737;BME280;64476;55.004;73.342;2023-05-21T16:22:36;101236.19;;;18.34;24.58
69737;BME280;64476;55.004;73.342;2023-05-21T16:25:41;101176.78;;;17.92;24.76
69737;BME280;64476;55.004;73.342;2023-05-21T16:28:43;101246.22;;;18.32;25.13
69737;BME280;64476;55.004;73.342;2023-05-21T16:31:46;101232.44;;;18.22;25.21
69737;BME280;64476;55.004;73.342;2023-05-21T16:37:49;101233.47;;;18.21;25.54
69737;BME280;64476;55.004;73.342;2023-05-21T16:40:51;101221.88;;;18.07;25.38
69737;BME280;64476;55.004;73.342;2023-05-21T16:43:54;101228.66;;;18.10;25.82
69737;BME280;64476;55.004;73.342;2023-05-21T16:46:57;101220.25;;;18.06;26.04
69737;BME280;64476;55.004;73.342;2023-05-21T16:49:59;101211.56;;;17.98;26.14
69737;BME280;64476;55.004;73.342;2023-05-21T16:53:02;101227.78;;;18.03;26.30